sensor_id;sensor_type;location;lat;lon;timestamp;P1;durP1;ratioP1;P2;durP2;ratioP2
21675;SDS011;10999;51.332;9.458;2024-03-02T11:43:15;8.20;;;3.65;;
21675;SDS011;10999;51.332;9.458;2024-03-02T11:45:43;10.60;;;4.03;;
21675;SDS011;10999;51.332;9.458;2024-03-02T11:48:12;8.80;;;3.80;;
21675;SDS011;10999;51.332;9.458;2024-03-02T11:50:47;10.35;;;4.45;;
21675;SDS011;10999;51.332;9.458;2024-03-02T11:53:18;7.78;;;3.45;;
21675;SDS011;10999;51.332;9.458;2024-03-02T11:55:46;11.50;;;4.10;;
21675;SDS011;10999;51.332;9.458;2024-03-02T11:58:16;9.88;;;4.07;;
21675;SDS011;10999;51.332;9.458;2024-03-02T12:00:53;10.88;;;4.43;;
21675;SDS011;10999;51.332;9.458;2024-03-02T12:03:22;10.88;;;4.70;;
21675;SDS011;10999;51.332;9.458;2024-03-02T12:05:52;10.25;;;4.13;;
21675;SDS011;10999;51.332;9.458;2024-03-02T12:08:20;8.07;;;4.63;;
21675;SDS011;10999;51.332;9.458;2024-03-02T12:10:57;12.68;;;4.55;;
21675;SDS011;10999;51.332;9.458;2024-03-02T12:13:25;11.05;;;4.55;;
21675;SDS011;10999;51.332;9.458;2024-03-02T12:15:53;9.07;;;3.85;;
21675;SDS011;10999;51.332;9.458;2024-03-02T12:18:21;9.48;;;3.95;;
21675;SDS011;10999;51.332;9.458;2024-03-02T12:20:49;8.32;;;3.88;;
21675;SDS011;10999;51.332;9.458;2024-03-02T12:23:19;10.20;;;4.05;;
21675;SDS011;10999;51.332;9.458;2024-03-02T12:25:46;10.23;;;3.78;;
21675;SDS011;10999;51.332;9.458;2024-03-02T12:28:13;8.45;;;3.25;;
21675;SDS011;10999;51.332;9.458;2024-03-02T12:30:40;7.93;;;3.10;;
21675;SDS011;10999;51.332;9.458;2024-03-02T12:33:07;8.93;;;3.78;;
21675;SDS011;10999;51.332;9.458;2024-03-02T12:35:35;9.52;;;4.20;;
21675;SDS011;10999;51.332;9.458;2024-03-02T12:38:02;8.90;;;3.65;;
21675;SDS011;10999;51.332;9.458;2024-03-02T12:40:30;8.93;;;3.53;;
21675;SDS011;10999;51.332;9.458;2024-03-02T12:42:57;10.05;;;3.50;;
21675;SDS011;10999;51.332;9.458;2024-03-02T12:45:24;8.90;;;3.70;;
21675;SDS011;10999;51.332;9.458;2024-03-02T12:47:51;6.88;;;3.47;;
21675;SDS011;10999;51.332;9.458;2024-03-02T12:50:18;7.63;;;3.20;;
21675;SDS011;10999;51.332;9.458;2024-03-02T12:52:52;7.78;;;3.15;;
21675;SDS011;10999;51.332;9.458;2024-03-02T12:55:21;7.32;;;2.70;;
21675;SDS011;10999;51.332;9.458;2024-03-02T12:57:52;6.15;;;2.83;;
21675;SDS011;10999;51.332;9.458;2024-03-02T13:00:20;7.75;;;2.95;;
21675;SDS011;10999;51.332;9.458;2024-03-02T13:02:49;8.57;;;3.00;;
21675;SDS011;10999;51.332;9.458;2024-03-02T13:05:18;6.72;;;2.95;;
21675;SDS011;10999;51.332;9.458;2024-03-02T13:07:46;8.05;;;3.30;;
21675;SDS011;10999;51.332;9.458;2024-03-02T13:10:14;6.30;;;2.38;;
21675;SDS011;10999;51.332;9.458;2024-03-02T13:12:41;7.68;;;3.63;;
21675;SDS011;10999;51.332;9.458;2024-03-02T13:15:09;5.18;;;1.98;;
21675;SDS011;10999;51.332;9.458;2024-03-02T13:17:40;5.07;;;1.92;;
21675;SDS011;10999;51.332;9.458;2024-03-02T13:20:07;6.03;;;2.25;;
21675;SDS011;10999;51.332;9.458;2024-03-02T13:22:37;5.78;;;2.22;;
21675;SDS011;10999;51.332;9.458;2024-03-02T13:25:04;6.40;;;2.40;;
21675;SDS011;10999;51.332;9.458;2024-03-02T13:27:32;6.93;;;2.40;;
21675;SDS011;10999;51.332;9.458;2024-03-02T13:29:59;5.82;;;2.63;;
21675;SDS011;10999;51.332;9.458;2024-03-02T13:32:26;6.63;;;2.33;;
21675;SDS011;10999;51.332;9.458;2024-03-02T13:34:53;5.47;;;1.95;;
21675;SDS011;10999;51.332;9.458;2024-03-02T13:37:20;4.85;;;1.88;;
21675;SDS011;10999;51.332;9.458;2024-03-02T13:39:50;4.13;;;1.67;;
21675;SDS011;10999;51.332;9.458;2024-03-02T13:42:17;4.80;;;1.33;;
21675;SDS011;10999;51.332;9.458;2024-03-02T13:44:44;5.40;;;1.88;;
21675;SDS011;10999;51.332;9.458;2024-03-02T13:47:15;5.05;;;1.90;;
21675;SDS011;10999;51.332;9.458;2024-03-02T13:49:42;4.85;;;2.03;;
21675;SDS011;10999;51.332;9.458;2024-03-02T13:52:13;4.88;;;1.38;;
21675;SDS011;10999;51.332;9.458;2024-03-02T13:54:41;4.10;;;1.50;;
21675;SDS011;10999;51.332;9.458;2024-03-02T13:57:10;3.95;;;1.23;;
21675;SDS011;10999;51.332;9.458;2024-03-02T13:59:37;3.97;;;1.30;;
21675;SDS011;10999;51.332;9.458;2024-03-02T14:02:05;3.65;;;1.25;;
21675;SDS011;10999;51.332;9.458;2024-03-02T14:04:35;5.03;;;1.25;;
21675;SDS011;10999;51.332;9.458;2024-03-02T14:07:03;2.92;;;1.20;;
21675;SDS011;10999;51.332;9.458;2024-03-02T14:09:34;4.30;;;1.20;;
21675;SDS011;10999;51.332;9.458;2024-03-02T14:12:01;4.30;;;1.40;;
21675;SDS011;10999;51.332;9.458;2024-03-02T14:14:28;3.08;;;1.10;;
21675;SDS011;10999;51.332;9.458;2024-03-02T14:16:55;4.43;;;1.30;;
21675;SDS011;10999;51.332;9.458;2024-03-02T14:19:22;2.63;;;0.90;;
21675;SDS011;10999;51.332;9.458;2024-03-02T14:21:49;2.88;;;1.17;;
21675;SDS011;10999;51.332;9.458;2024-03-02T14:24:16;2.33;;;0.98;;
21675;SDS011;10999;51.332;9.458;2024-03-02T14:26:43;1.85;;;0.80;;
21675;SDS011;10999;51.332;9.458;2024-03-02T14:29:10;3.75;;;0.95;;
21675;SDS011;10999;51.332;9.458;2024-03-02T14:31:37;4.22;;;1.10;;
21675;SDS011;10999;51.332;9.458;2024-03-02T14:34:04;2.72;;;1.02;;
21675;SDS011;10999;51.332;9.458;2024-03-02T14:36:31;2.85;;;1.13;;
21675;SDS011;10999;51.332;9.458;2024-03-02T14:38:58;2.83;;;1.02;;
21675;SDS011;10999;51.332;9.458;2024-03-02T14:41:25;2.97;;;1.10;;
21675;SDS011;10999;51.332;9.458;2024-03-02T14:43:51;2.45;;;0.80;;
21675;SDS011;10999;51.332;9.458;2024-03-02T14:46:19;3.03;;;1.27;;
21675;SDS011;10999;51.332;9.458;2024-03-02T14:48:46;5.55;;;1.40;;
21675;SDS011;10999;51.332;9.458;2024-03-02T14:51:13;3.35;;;1.20;;
21675;SDS011;10999;51.332;9.458;2024-03-02T14:53:40;4.22;;;1.50;;
21675;SDS011;10999;51.332;9.458;2024-03-02T14:56:08;5.45;;;1.45;;
21675;SDS011;10999;51.332;9.458;2024-03-02T14:58:35;3.92;;;1.40;;
21675;SDS011;10999;51.332;9.458;2024-03-02T15:01:03;3.88;;;1.42;;
21675;SDS011;10999;51.332;9.458;2024-03-02T15:03:31;6.57;;;1.85;;
21675;SDS011;10999;51.332;9.458;2024-03-02T15:05:58;5.80;;;2.05;;
21675;SDS011;10999;51.332;9.458;2024-03-02T15:08:26;6.82;;;2.25;;
21675;SDS011;10999;51.332;9.458;2024-03-02T15:10:53;6.75;;;2.10;;
21675;SDS011;10999;51.332;9.458;2024-03-02T15:13:22;5.78;;;2.22;;
21675;SDS011;10999;51.332;9.458;2024-03-02T15:15:49;6.25;;;2.30;;
21675;SDS011;10999;51.332;9.458;2024-03-02T15:18:17;7.88;;;2.67;;
21675;SDS011;10999;51.332;9.458;2024-03-02T15:20:44;6.00;;;2.42;;
21675;SDS011;10999;51.332;9.458;2024-03-02T15:23:11;6.13;;;2.13;;
21675;SDS011;10999;51.332;9.458;2024-03-02T15:25:37;8.13;;;2.67;;
21675;SDS011;10999;51.332;9.458;2024-03-02T15:28:04;6.40;;;2.00;;
21675;SDS011;10999;51.332;9.458;2024-03-02T15:30:31;5.25;;;2.03;;
21675;SDS011;10999;51.332;9.458;2024-03-02T15:32:58;6.45;;;2.10;;
21675;SDS011;10999;51.332;9.458;2024-03-02T15:35:25;4.57;;;1.77;;
21675;SDS011;10999;51.332;9.458;2024-03-02T15:37:52;6.60;;;2.00;;
21675;SDS011;10999;51.332;9.458;2024-03-02T15:40:19;5.20;;;2.22;;
21675;SDS011;10999;51.332;9.458;2024-03-02T15:42:46;5.93;;;1.98;;
21675;SDS011;10999;51.332;9.458;2024-03-02T15:45:13;4.80;;;1.80;;
21675;SDS011;10999;51.332;9.458;2024-03-02T15:47:39;6.90;;;2.15;;
21675;SDS011;10999;51.332;9.458;2024-03-02T15:50:06;3.72;;;1.77;;
21675;SDS011;10999;51.332;9.458;2024-03-02T15:52:33;5.35;;;1.77;;
21675;SDS011;10999;51.332;9.458;2024-03-02T15:55:00;5.15;;;1.65;;
21675;SDS011;10999;51.332;9.458;2024-03-02T15:57:32;4.38;;;1.40;;
21675;SDS011;10999;51.332;9.458;2024-03-02T15:59:59;5.85;;;1.88;;
21675;SDS011;10999;51.332;9.458;2024-03-02T16:02:26;3.83;;;1.83;;
21675;SDS011;10999;51.332;9.458;2024-03-02T16:04:53;7.15;;;2.15;;
21675;SDS011;10999;51.332;9.458;2024-03-02T16:07:20;6.13;;;1.88;;
21675;SDS011;10999;51.332;9.458;2024-03-02T16:09:46;4.95;;;1.77;;
21675;SDS011;10999;51.332;9.458;2024-03-02T16:12:13;4.60;;;1.98;;
21675;SDS011;10999;51.332;9.458;2024-03-02T16:14:41;7.85;;;2.17;;
21675;SDS011;10999;51.332;9.458;2024-03-02T16:17:08;6.03;;;2.25;;
21675;SDS011;10999;51.332;9.458;2024-03-02T16:19:35;5.47;;;2.20;;
21675;SDS011;10999;51.332;9.458;2024-03-02T16:22:05;5.70;;;2.15;;
21675;SDS011;10999;51.332;9.458;2024-03-02T16:24:34;5.15;;;1.92;;
21675;SDS011;10999;51.332;9.458;2024-03-02T16:27:01;5.75;;;2.33;;
21675;SDS011;10999;51.332;9.458;2024-03-02T16:29:28;5.07;;;1.92;;
21675;SDS011;10999;51.332;9.458;2024-03-02T16:31:55;5.15;;;1.98;;
21675;SDS011;10999;51.332;9.458;2024-03-02T16:34:21;6.18;;;2.03;;
21675;SDS011;10999;51.332;9.458;2024-03-02T16:36:48;6.75;;;2.60;;
21675;SDS011;10999;51.332;9.458;2024-03-02T16:39:15;6.95;;;2.30;;
21675;SDS011;10999;51.332;9.458;2024-03-02T16:41:42;7.40;;;2.20;;
21675;SDS011;10999;51.332;9.458;2024-03-02T16:44:13;5.65;;;1.98;;
21675;SDS011;10999;51.332;9.458;2024-03-02T16:46:40;5.80;;;2.20;;
21675;SDS011;10999;51.332;9.458;2024-03-02T16:49:07;5.57;;;1.85;;
21675;SDS011;10999;51.332;9.458;2024-03-02T16:51:41;6.88;;;2.38;;
21675;SDS011;10999;51.332;9.458;2024-03-02T16:54:08;5.22;;;1.83;;
21675;SDS011;10999;51.332;9.458;2024-03-02T16:56:38;5.72;;;1.90;;
21675;SDS011;10999;51.332;9.458;2024-03-02T16:59:06;4.38;;;1.70;;
21675;SDS011;10999;51.332;9.458;2024-03-02T17:01:33;5.50;;;1.92;;
21675;SDS011;10999;51.332;9.458;2024-03-02T17:04:00;5.80;;;2.15;;
21675;SDS011;10999;51.332;9.458;2024-03-02T17:06:28;4.45;;;2.15;;
21675;SDS011;10999;51.332;9.458;2024-03-02T17:08:54;5.03;;;1.80;;
21675;SDS011;10999;51.332;9.458;2024-03-02T17:11:21;6.03;;;2.17;;
21675;SDS011;10999;51.332;9.458;2024-03-02T17:13:48;5.78;;;1.95;;
21675;SDS011;10999;51.332;9.458;2024-03-02T17:16:18;5.78;;;2.08;;
21675;SDS011;10999;51.332;9.458;2024-03-02T17:18:45;7.05;;;2.28;;
21675;SDS011;10999;51.332;9.458;2024-03-02T17:21:12;5.32;;;2.33;;
21675;SDS011;10999;51.332;9.458;2024-03-02T17:23:39;6.32;;;2.00;;
21675;SDS011;10999;51.332;9.458;2024-03-02T17:26:05;6.45;;;1.67;;
21675;SDS011;10999;51.332;9.458;2024-03-02T17:28:32;4.65;;;1.77;;
21675;SDS011;10999;51.332;9.458;2024-03-02T17:31:00;5.50;;;1.70;;
21675;SDS011;10999;51.332;9.458;2024-03-02T17:33:27;4.15;;;1.50;;
21675;SDS011;10999;51.332;9.458;2024-03-02T17:35:54;3.83;;;1.50;;
21675;SDS011;10999;51.332;9.458;2024-03-02T17:38:20;4.30;;;1.73;;
21675;SDS011;10999;51.332;9.458;2024-03-02T17:40:47;6.85;;;1.67;;
21675;SDS011;10999;51.332;9.458;2024-03-02T17:43:14;4.20;;;1.38;;
21675;SDS011;10999;51.332;9.458;2024-03-02T17:45:41;7.18;;;1.90;;
21675;SDS011;10999;51.332;9.458;2024-03-02T17:48:08;3.58;;;1.50;;
21675;SDS011;10999;51.332;9.458;2024-03-02T17:50:35;7.13;;;1.70;;
21675;SDS011;10999;51.332;9.458;2024-03-02T17:53:02;6.90;;;2.55;;
21675;SDS011;10999;51.332;9.458;2024-03-02T17:55:29;7.22;;;2.53;;
21675;SDS011;10999;51.332;9.458;2024-03-02T17:57:57;5.93;;;2.17;;
21675;SDS011;10999;51.332;9.458;2024-03-02T18:00:23;6.47;;;1.90;;
21675;SDS011;10999;51.332;9.458;2024-03-02T18:02:50;4.65;;;1.98;;
21675;SDS011;10999;51.332;9.458;2024-03-02T18:05:17;5.07;;;2.00;;
21675;SDS011;10999;51.332;9.458;2024-03-02T18:07:44;6.85;;;1.95;;
21675;SDS011;10999;51.332;9.458;2024-03-02T18:10:11;5.50;;;2.03;;
21675;SDS011;10999;51.332;9.458;2024-03-02T18:12:38;5.53;;;1.90;;
21675;SDS011;10999;51.332;9.458;2024-03-02T18:15:08;4.93;;;2.00;;
21675;SDS011;10999;51.332;9.458;2024-03-02T18:17:35;4.40;;;2.08;;
21675;SDS011;10999;51.332;9.458;2024-03-02T18:20:02;5.13;;;1.90;;
21675;SDS011;10999;51.332;9.458;2024-03-02T18:22:32;4.15;;;1.77;;
21675;SDS011;10999;51.332;9.458;2024-03-02T18:25:00;5.65;;;2.10;;
21675;SDS011;10999;51.332;9.458;2024-03-02T18:27:28;7.10;;;1.80;;
21675;SDS011;10999;51.332;9.458;2024-03-02T18:29:55;9.05;;;3.03;;
21675;SDS011;10999;51.332;9.458;2024-03-02T18:32:22;7.57;;;3.22;;
21675;SDS011;10999;51.332;9.458;2024-03-02T18:34:49;9.27;;;3.78;;
21675;SDS011;10999;51.332;9.458;2024-03-02T18:37:15;10.38;;;3.35;;
21675;SDS011;10999;51.332;9.458;2024-03-02T18:39:48;9.10;;;3.30;;
21675;SDS011;10999;51.332;9.458;2024-03-02T18:42:15;8.50;;;3.58;;
21675;SDS011;10999;51.332;9.458;2024-03-02T18:44:42;10.13;;;3.80;;
21675;SDS011;10999;51.332;9.458;2024-03-02T18:47:09;13.35;;;3.55;;
21675;SDS011;10999;51.332;9.458;2024-03-02T18:49:42;10.20;;;3.80;;
21675;SDS011;10999;51.332;9.458;2024-03-02T18:52:11;10.93;;;3.85;;
21675;SDS011;10999;51.332;9.458;2024-03-02T18:54:40;10.88;;;4.07;;
21675;SDS011;10999;51.332;9.458;2024-03-02T18:57:07;10.88;;;4.38;;
21675;SDS011;10999;51.332;9.458;2024-03-02T18:59:36;8.43;;;3.70;;
21675;SDS011;10999;51.332;9.458;2024-03-02T19:02:03;10.55;;;4.13;;
21675;SDS011;10999;51.332;9.458;2024-03-02T19:04:30;9.43;;;4.35;;
21675;SDS011;10999;51.332;9.458;2024-03-02T19:06:57;11.57;;;5.90;;
21675;SDS011;10999;51.332;9.458;2024-03-02T19:09:24;11.77;;;5.88;;
21675;SDS011;10999;51.332;9.458;2024-03-02T19:11:51;13.35;;;7.07;;
21675;SDS011;10999;51.332;9.458;2024-03-02T19:14:17;14.98;;;7.65;;
21675;SDS011;10999;51.332;9.458;2024-03-02T19:16:44;14.60;;;7.18;;
21675;SDS011;10999;51.332;9.458;2024-03-02T19:19:11;15.98;;;7.88;;
21675;SDS011;10999;51.332;9.458;2024-03-02T19:21:38;18.08;;;7.53;;
21675;SDS011;10999;51.332;9.458;2024-03-02T19:24:05;13.50;;;6.88;;
21675;SDS011;10999;51.332;9.458;2024-03-02T19:26:32;17.30;;;6.68;;
21675;SDS011;10999;51.332;9.458;2024-03-02T19:28:58;13.65;;;6.70;;
21675;SDS011;10999;51.332;9.458;2024-03-02T19:31:25;17.33;;;7.70;;
21675;SDS011;10999;51.332;9.458;2024-03-02T19:33:52;13.80;;;7.20;;
21675;SDS011;10999;51.332;9.458;2024-03-02T19:36:19;14.93;;;7.25;;
21675;SDS011;10999;51.332;9.458;2024-03-02T19:38:46;16.55;;;8.73;;
21675;SDS011;10999;51.332;9.458;2024-03-02T19:41:12;15.27;;;7.63;;
21675;SDS011;10999;51.332;9.458;2024-03-02T19:43:39;17.05;;;7.57;;
21675;SDS011;10999;51.332;9.458;2024-03-02T19:46:06;13.48;;;7.63;;
21675;SDS011;10999;51.332;9.458;2024-03-02T19:48:33;15.90;;;7.03;;
21675;SDS011;10999;51.332;9.458;2024-03-02T19:51:00;17.23;;;7.80;;
21675;SDS011;10999;51.332;9.458;2024-03-02T19:53:26;15.65;;;7.57;;
21675;SDS011;10999;51.332;9.458;2024-03-02T19:55:53;17.38;;;8.63;;
21675;SDS011;10999;51.332;9.458;2024-03-02T19:58:20;18.92;;;8.20;;
21675;SDS011;10999;51.332;9.458;2024-03-02T20:00:47;17.75;;;8.32;;
21675;SDS011;10999;51.332;9.458;2024-03-02T20:03:14;17.50;;;8.60;;
21675;SDS011;10999;51.332;9.458;2024-03-02T20:05:40;21.17;;;8.73;;
21675;SDS011;10999;51.332;9.458;2024-03-02T20:08:07;20.05;;;8.10;;
21675;SDS011;10999;51.332;9.458;2024-03-02T20:10:34;21.08;;;9.30;;
21675;SDS011;10999;51.332;9.458;2024-03-02T20:13:01;18.67;;;9.18;;
21675;SDS011;10999;51.332;9.458;2024-03-02T20:15:31;15.35;;;7.88;;
21675;SDS011;10999;51.332;9.458;2024-03-02T20:17:58;20.20;;;9.20;;
21675;SDS011;10999;51.332;9.458;2024-03-02T20:20:25;18.63;;;10.23;;
21675;SDS011;10999;51.332;9.458;2024-03-02T20:22:51;17.88;;;8.45;;
21675;SDS011;10999;51.332;9.458;2024-03-02T20:25:18;20.52;;;8.95;;
21675;SDS011;10999;51.332;9.458;2024-03-02T20:27:45;22.83;;;10.35;;
21675;SDS011;10999;51.332;9.458;2024-03-02T20:30:12;22.52;;;10.88;;
21675;SDS011;10999;51.332;9.458;2024-03-02T20:32:39;20.70;;;9.27;;
21675;SDS011;10999;51.332;9.458;2024-03-02T20:35:06;21.75;;;9.68;;
21675;SDS011;10999;51.332;9.458;2024-03-02T20:37:33;17.30;;;8.38;;
21675;SDS011;10999;51.332;9.458;2024-03-02T20:40:00;21.80;;;9.45;;
21675;SDS011;10999;51.332;9.458;2024-03-02T20:42:27;24.05;;;9.82;;
21675;SDS011;10999;51.332;9.458;2024-03-02T20:44:54;25.30;;;10.20;;
21675;SDS011;10999;51.332;9.458;2024-03-02T20:47:21;22.10;;;9.50;;
21675;SDS011;10999;51.332;9.458;2024-03-02T20:49:49;15.70;;;9.43;;
21675;SDS011;10999;51.332;9.458;2024-03-02T20:52:17;19.13;;;8.98;;
21675;SDS011;10999;51.332;9.458;2024-03-02T20:54:44;16.02;;;9.27;;
21675;SDS011;10999;51.332;9.458;2024-03-02T20:57:19;15.35;;;8.38;;
21675;SDS011;10999;51.332;9.458;2024-03-02T20:59:45;19.40;;;8.98;;
21675;SDS011;10999;51.332;9.458;2024-03-02T21:02:13;15.00;;;7.55;;
21675;SDS011;10999;51.332;9.458;2024-03-02T21:04:40;17.45;;;9.45;;
21675;SDS011;10999;51.332;9.458;2024-03-02T21:07:08;15.20;;;9.07;;
21675;SDS011;10999;51.332;9.458;2024-03-02T21:09:35;17.83;;;8.55;;
21675;SDS011;10999;51.332;9.458;2024-03-02T21:12:02;18.77;;;9.35;;
21675;SDS011;10999;51.332;9.458;2024-03-02T21:14:31;17.58;;;9.30;;
21675;SDS011;10999;51.332;9.458;2024-03-02T21:16:58;18.35;;;8.70;;
21675;SDS011;10999;51.332;9.458;2024-03-02T21:19:24;19.75;;;8.50;;
21675;SDS011;10999;51.332;9.458;2024-03-02T21:21:52;16.80;;;8.77;;
21675;SDS011;10999;51.332;9.458;2024-03-02T21:24:20;17.52;;;8.95;;
21675;SDS011;10999;51.332;9.458;2024-03-02T21:26:47;14.40;;;8.23;;
21675;SDS011;10999;51.332;9.458;2024-03-02T21:29:16;15.05;;;8.20;;
21675;SDS011;10999;51.332;9.458;2024-03-02T21:31:49;17.25;;;8.35;;
21675;SDS011;10999;51.332;9.458;2024-03-02T21:34:17;19.92;;;8.80;;
21675;SDS011;10999;51.332;9.458;2024-03-02T21:36:44;19.00;;;8.77;;
21675;SDS011;10999;51.332;9.458;2024-03-02T21:39:11;16.27;;;8.50;;
21675;SDS011;10999;51.332;9.458;2024-03-02T21:41:38;18.35;;;7.95;;
21675;SDS011;10999;51.332;9.458;2024-03-02T21:44:04;15.38;;;8.57;;
21675;SDS011;10999;51.332;9.458;2024-03-02T21:46:32;16.33;;;7.10;;
21675;SDS011;10999;51.332;9.458;2024-03-02T21:48:59;20.02;;;8.88;;
21675;SDS011;10999;51.332;9.458;2024-03-02T21:51:26;19.75;;;10.10;;
21675;SDS011;10999;51.332;9.458;2024-03-02T21:53:53;17.60;;;9.30;;
21675;SDS011;10999;51.332;9.458;2024-03-02T21:56:20;16.33;;;8.13;;
21675;SDS011;10999;51.332;9.458;2024-03-02T21:58:48;20.42;;;8.50;;
21675;SDS011;10999;51.332;9.458;2024-03-02T22:01:15;18.23;;;8.10;;
21675;SDS011;10999;51.332;9.458;2024-03-02T22:03:42;15.52;;;7.70;;
21675;SDS011;10999;51.332;9.458;2024-03-02T22:06:14;16.85;;;7.32;;
21675;SDS011;10999;51.332;9.458;2024-03-02T22:08:41;18.45;;;7.57;;
21675;SDS011;10999;51.332;9.458;2024-03-02T22:11:08;18.00;;;7.47;;
21675;SDS011;10999;51.332;9.458;2024-03-02T22:13:37;15.77;;;7.57;;
21675;SDS011;10999;51.332;9.458;2024-03-02T22:16:04;18.05;;;7.55;;
21675;SDS011;10999;51.332;9.458;2024-03-02T22:18:31;17.70;;;6.95;;
21675;SDS011;10999;51.332;9.458;2024-03-02T22:20:58;19.85;;;8.02;;
21675;SDS011;10999;51.332;9.458;2024-03-02T22:23:25;19.17;;;8.90;;
21675;SDS011;10999;51.332;9.458;2024-03-02T22:25:52;20.40;;;8.77;;
21675;SDS011;10999;51.332;9.458;2024-03-02T22:29:35;17.10;;;7.80;;
21675;SDS011;10999;51.332;9.458;2024-03-02T22:33:09;18.25;;;7.45;;
21675;SDS011;10999;51.332;9.458;2024-03-02T22:36:58;19.55;;;6.93;;
21675;SDS011;10999;51.332;9.458;2024-03-02T22:40:16;17.55;;;6.70;;
21675;SDS011;10999;51.332;9.458;2024-03-02T22:47:44;12.50;;;6.20;;
21675;SDS011;10999;51.332;9.458;2024-03-02T22:55:03;14.70;;;6.28;;
21675;SDS011;10999;51.332;9.458;2024-03-02T22:59:04;15.30;;;6.88;;
21675;SDS011;10999;51.332;9.458;2024-03-02T23:03:16;15.18;;;6.13;;
21675;SDS011;10999;51.332;9.458;2024-03-02T23:07:26;18.75;;;6.57;;
21675;SDS011;10999;51.332;9.458;2024-03-02T23:51:12;14.07;;;6.53;;
21675;SDS011;10999;51.332;9.458;2024-03-02T23:53:40;16.38;;;7.28;;
